sensor_id;sensor_type;location;lat;lon;timestamp;pressure;altitude;pressure_sealevel;temperature;humidity
45991;BME280;31721;41.740;-88.000;2023-02-03T00:01:06;99654.63;;;-5.16;37.59
45991;BME280;31721;41.740;-88.000;2023-02-03T00:03:33;99666.47;;;-5.37;36.94
45991;BME280;31721;41.740;-88.000;2023-02-03T00:06:02;99670.42;;;-5.38;37.76
45991;BME280;31721;41.740;-88.000;2023-02-03T00:08:31;99681.43;;;-4.93;37.99
45991;BME280;31721;41.740;-88.000;2023-02-03T00:10:59;99678.47;;;-5.25;37.68
45991;BME280;31721;41.740;-88.000;2023-02-03T00:13:27;99682.21;;;-5.08;37.89
45991;BME280;31721;41.740;-88.000;2023-02-03T00:15:55;99684.57;;;-4.95;37.66
45991;BME280;31721;41.740;-88.000;2023-02-03T00:18:23;99691.03;;;-5.38;37.50
45991;BME280;31721;41.740;-88.000;2023-02-03T00:20:51;99697.29;;;-5.71;38.38
45991;BME280;31721;41.740;-88.000;2023-02-03T00:23:19;99695.28;;;-6.40;39.05
45991;BME280;31721;41.740;-88.000;2023-02-03T00:25:47;99706.48;;;-6.03;39.14
45991;BME280;31721;41.740;-88.000;2023-02-03T00:28:15;99715.34;;;-5.79;39.12
45991;BME280;31721;41.740;-88.000;2023-02-03T00:30:43;99714.42;;;-6.26;38.09
45991;BME280;31721;41.740;-88.000;2023-02-03T00:33:10;99726.28;;;-6.17;38.26
45991;BME280;31721;41.740;-88.000;2023-02-03T00:35:38;99729.14;;;-6.26;38.55
45991;BME280;31721;41.740;-88.000;2023-02-03T00:38:07;99731.84;;;-6.39;38.41
45991;BME280;31721;41.740;-88.000;2023-02-03T00:40:34;99740.45;;;-6.34;37.86
45991;BME280;31721;41.740;-88.000;2023-02-03T00:43:02;99746.82;;;-6.32;38.32
45991;BME280;31721;41.740;-88.000;2023-02-03T00:45:30;99750.17;;;-6.63;37.82
45991;BME280;31721;41.740;-88.000;2023-02-03T00:47:58;99761.20;;;-6.60;37.58
45991;BME280;31721;41.740;-88.000;2023-02-03T00:50:27;99756.51;;;-6.79;36.17
45991;BME280;31721;41.740;-88.000;2023-02-03T00:52:55;99758.82;;;-6.76;35.30
45991;BME280;31721;41.740;-88.000;2023-02-03T00:55:23;99761.39;;;-7.07;35.29
45991;BME280;31721;41.740;-88.000;2023-02-03T00:57:51;99767.23;;;-6.32;36.78
45991;BME280;31721;41.740;-88.000;2023-02-03T01:00:20;99763.15;;;-6.81;35.89
45991;BME280;31721;41.740;-88.000;2023-02-03T01:02:48;99771.29;;;-6.68;36.05
45991;BME280;31721;41.740;-88.000;2023-02-03T01:05:16;99776.53;;;-6.82;34.95
45991;BME280;31721;41.740;-88.000;2023-02-03T01:07:44;99782.13;;;-7.09;34.08
45991;BME280;31721;41.740;-88.000;2023-02-03T01:10:12;99786.57;;;-7.23;34.77
45991;BME280;31721;41.740;-88.000;2023-02-03T01:12:39;99783.13;;;-7.12;35.60
45991;BME280;31721;41.740;-88.000;2023-02-03T01:15:07;99795.56;;;-7.02;35.25
45991;BME280;31721;41.740;-88.000;2023-02-03T01:17:35;99802.43;;;-7.04;35.14
45991;BME280;31721;41.740;-88.000;2023-02-03T01:20:04;99805.98;;;-7.35;35.28
45991;BME280;31721;41.740;-88.000;2023-02-03T01:22:32;99805.27;;;-6.60;36.04
45991;BME280;31721;41.740;-88.000;2023-02-03T01:25:00;99815.02;;;-6.72;35.33
45991;BME280;31721;41.740;-88.000;2023-02-03T01:27:27;99807.75;;;-6.78;36.08
45991;BME280;31721;41.740;-88.000;2023-02-03T01:29:55;99811.89;;;-7.30;35.52
45991;BME280;31721;41.740;-88.000;2023-02-03T01:32:22;99812.60;;;-7.60;35.36
45991;BME280;31721;41.740;-88.000;2023-02-03T01:34:50;99814.61;;;-8.20;35.81
45991;BME280;31721;41.740;-88.000;2023-02-03T01:37:18;99821.12;;;-8.02;35.64
45991;BME280;31721;41.740;-88.000;2023-02-03T01:39:46;99828.52;;;-7.65;36.05
45991;BME280;31721;41.740;-88.000;2023-02-03T01:42:15;99830.68;;;-7.84;35.76
45991;BME280;31721;41.740;-88.000;2023-02-03T01:44:45;99832.93;;;-7.49;35.73
45991;BME280;31721;41.740;-88.000;2023-02-03T01:47:19;99836.98;;;-7.19;36.05
45991;BME280;31721;41.740;-88.000;2023-02-03T01:49:54;99841.51;;;-6.99;36.19
45991;BME280;31721;41.740;-88.000;2023-02-03T01:52:25;99846.42;;;-7.26;35.83
45991;BME280;31721;41.740;-88.000;2023-02-03T01:54:56;99844.29;;;-7.63;35.21
45991;BME280;31721;41.740;-88.000;2023-02-03T01:57:31;99849.55;;;-7.58;35.75
45991;BME280;31721;41.740;-88.000;2023-02-03T02:00:00;99847.00;;;-7.27;35.57
45991;BME280;31721;41.740;-88.000;2023-02-03T02:02:30;99862.82;;;-8.03;36.08
45991;BME280;31721;41.740;-88.000;2023-02-03T02:05:05;99866.26;;;-7.96;35.75
45991;BME280;31721;41.740;-88.000;2023-02-03T02:07:34;99869.84;;;-7.46;35.88
45991;BME280;31721;41.740;-88.000;2023-02-03T02:10:04;99876.62;;;-7.40;35.46
45991;BME280;31721;41.740;-88.000;2023-02-03T02:12:32;99879.02;;;-7.15;35.86
45991;BME280;31721;41.740;-88.000;2023-02-03T02:15:01;99886.92;;;-7.39;35.92
45991;BME280;31721;41.740;-88.000;2023-02-03T02:17:42;99895.01;;;-6.98;36.18
45991;BME280;31721;41.740;-88.000;2023-02-03T02:25:21;99908.25;;;-7.30;35.91
45991;BME280;31721;41.740;-88.000;2023-02-03T02:28:22;99908.09;;;-7.41;36.22
45991;BME280;31721;41.740;-88.000;2023-02-03T02:31:38;99917.38;;;-7.95;35.67
45991;BME280;31721;41.740;-88.000;2023-02-03T02:34:14;99933.64;;;-8.06;35.40
45991;BME280;31721;41.740;-88.000;2023-02-03T02:36:56;99937.76;;;-7.66;36.41
45991;BME280;31721;41.740;-88.000;2023-02-03T02:39:35;99935.58;;;-7.38;36.71
45991;BME280;31721;41.740;-88.000;2023-02-03T02:42:09;99937.38;;;-7.19;36.16
45991;BME280;31721;41.740;-88.000;2023-02-03T02:44:44;99942.31;;;-7.65;35.42
45991;BME280;31721;41.740;-88.000;2023-02-03T02:47:17;99943.57;;;-7.70;35.44
45991;BME280;31721;41.740;-88.000;2023-02-03T02:49:51;99952.72;;;-7.76;34.96
45991;BME280;31721;41.740;-88.000;2023-02-03T02:52:22;99956.85;;;-8.30;35.32
45991;BME280;31721;41.740;-88.000;2023-02-03T02:54:53;99958.09;;;-7.69;35.62
45991;BME280;31721;41.740;-88.000;2023-02-03T02:57:24;99974.66;;;-7.41;35.70
45991;BME280;31721;41.740;-88.000;2023-02-03T02:59:53;99975.48;;;-7.69;34.42
45991;BME280;31721;41.740;-88.000;2023-02-03T03:02:21;99983.99;;;-8.11;34.82
45991;BME280;31721;41.740;-88.000;2023-02-03T03:04:49;99983.49;;;-8.81;33.98
45991;BME280;31721;41.740;-88.000;2023-02-03T03:07:21;99984.80;;;-9.03;34.15
45991;BME280;31721;41.740;-88.000;2023-02-03T03:09:53;99988.67;;;-9.04;34.05
45991;BME280;31721;41.740;-88.000;2023-02-03T03:12:28;100000.90;;;-9.46;33.14
45991;BME280;31721;41.740;-88.000;2023-02-03T03:14:58;100000.76;;;-9.28;34.28
45991;BME280;31721;41.740;-88.000;2023-02-03T03:17:29;100000.72;;;-9.36;33.84
45991;BME280;31721;41.740;-88.000;2023-02-03T03:20:01;100007.64;;;-9.27;33.73
45991;BME280;31721;41.740;-88.000;2023-02-03T03:22:34;100001.26;;;-9.72;33.50
45991;BME280;31721;41.740;-88.000;2023-02-03T03:25:08;100007.30;;;-9.77;32.97
45991;BME280;31721;41.740;-88.000;2023-02-03T03:27:41;100015.67;;;-9.21;33.96
45991;BME280;31721;41.740;-88.000;2023-02-03T03:30:15;100026.64;;;-9.32;33.72
45991;BME280;31721;41.740;-88.000;2023-02-03T03:32:44;100025.82;;;-9.43;33.93
45991;BME280;31721;41.740;-88.000;2023-02-03T03:35:12;100029.69;;;-9.15;33.82
45991;BME280;31721;41.740;-88.000;2023-02-03T03:37:43;100029.30;;;-9.35;33.16
45991;BME280;31721;41.740;-88.000;2023-02-03T03:40:17;100034.50;;;-9.77;32.72
45991;BME280;31721;41.740;-88.000;2023-02-03T03:42:50;100043.40;;;-9.49;34.09
45991;BME280;31721;41.740;-88.000;2023-02-03T03:45:23;100045.64;;;-9.93;33.01
45991;BME280;31721;41.740;-88.000;2023-02-03T03:47:56;100048.81;;;-9.86;32.66
45991;BME280;31721;41.740;-88.000;2023-02-03T03:50:29;100055.97;;;-10.65;32.77
45991;BME280;31721;41.740;-88.000;2023-02-03T03:53:00;100072.39;;;-10.24;33.16
45991;BME280;31721;41.740;-88.000;2023-02-03T03:55:31;100066.90;;;-11.21;33.76
45991;BME280;31721;41.740;-88.000;2023-02-03T03:58:02;100068.18;;;-10.50;33.82
45991;BME280;31721;41.740;-88.000;2023-02-03T04:00:34;100075.14;;;-10.98;33.27
45991;BME280;31721;41.740;-88.000;2023-02-03T04:03:06;100077.12;;;-10.58;33.69
45991;BME280;31721;41.740;-88.000;2023-02-03T04:05:37;100081.64;;;-11.20;33.20
45991;BME280;31721;41.740;-88.000;2023-02-03T04:08:06;100076.57;;;-11.39;32.97
45991;BME280;31721;41.740;-88.000;2023-02-03T04:10:36;100082.20;;;-11.43;33.15
45991;BME280;31721;41.740;-88.000;2023-02-03T04:13:06;100087.33;;;-11.34;33.06
45991;BME280;31721;41.740;-88.000;2023-02-03T04:15:35;100092.37;;;-10.98;33.43
45991;BME280;31721;41.740;-88.000;2023-02-03T04:18:03;100088.50;;;-11.80;31.46
45991;BME280;31721;41.740;-88.000;2023-02-03T04:20:33;100083.71;;;-11.64;32.20
45991;BME280;31721;41.740;-88.000;2023-02-03T04:23:01;100090.49;;;-11.39;32.74
45991;BME280;31721;41.740;-88.000;2023-02-03T04:25:29;100097.54;;;-11.19;32.57
45991;BME280;31721;41.740;-88.000;2023-02-03T04:27:57;100101.38;;;-11.31;31.93
45991;BME280;31721;41.740;-88.000;2023-02-03T04:30:25;100109.64;;;-12.05;31.54
45991;BME280;31721;41.740;-88.000;2023-02-03T04:32:54;100118.03;;;-11.46;32.45
45991;BME280;31721;41.740;-88.000;2023-02-03T04:35:23;100120.00;;;-11.90;31.39
45991;BME280;31721;41.740;-88.000;2023-02-03T04:37:51;100122.84;;;-12.34;32.31
45991;BME280;31721;41.740;-88.000;2023-02-03T04:40:19;100140.32;;;-13.00;32.29
45991;BME280;31721;41.740;-88.000;2023-02-03T04:42:47;100151.96;;;-12.12;32.40
45991;BME280;31721;41.740;-88.000;2023-02-03T04:45:15;100142.95;;;-12.39;31.37
45991;BME280;31721;41.740;-88.000;2023-02-03T04:47:44;100150.22;;;-12.65;31.63
45991;BME280;31721;41.740;-88.000;2023-02-03T04:50:12;100160.14;;;-12.86;31.91
45991;BME280;31721;41.740;-88.000;2023-02-03T04:52:40;100164.15;;;-12.48;32.14
45991;BME280;31721;41.740;-88.000;2023-02-03T04:55:08;100164.31;;;-12.39;32.76
45991;BME280;31721;41.740;-88.000;2023-02-03T04:57:37;100170.85;;;-12.48;32.65
45991;BME280;31721;41.740;-88.000;2023-02-03T05:00:06;100167.61;;;-12.71;32.57
45991;BME280;31721;41.740;-88.000;2023-02-03T05:02:34;100180.67;;;-12.41;33.01
45991;BME280;31721;41.740;-88.000;2023-02-03T05:05:02;100177.66;;;-12.64;32.76
45991;BME280;31721;41.740;-88.000;2023-02-03T05:07:31;100181.44;;;-12.43;33.05
45991;BME280;31721;41.740;-88.000;2023-02-03T05:09:58;100184.53;;;-12.52;32.82
45991;BME280;31721;41.740;-88.000;2023-02-03T05:12:26;100187.59;;;-12.89;32.75
45991;BME280;31721;41.740;-88.000;2023-02-03T05:14:54;100194.15;;;-13.00;32.26
45991;BME280;31721;41.740;-88.000;2023-02-03T05:17:22;100191.62;;;-12.88;32.70
45991;BME280;31721;41.740;-88.000;2023-02-03T05:19:50;100191.38;;;-12.82;32.82
45991;BME280;31721;41.740;-88.000;2023-02-03T05:22:19;100180.95;;;-12.73;32.22
45991;BME280;31721;41.740;-88.000;2023-02-03T05:24:47;100186.48;;;-13.02;32.67
45991;BME280;31721;41.740;-88.000;2023-02-03T05:27:15;100178.83;;;-12.89;32.69
45991;BME280;31721;41.740;-88.000;2023-02-03T05:29:43;100192.95;;;-12.78;32.73
45991;BME280;31721;41.740;-88.000;2023-02-03T05:32:11;100182.39;;;-12.92;32.57
45991;BME280;31721;41.740;-88.000;2023-02-03T05:34:39;100197.15;;;-13.11;32.70
45991;BME280;31721;41.740;-88.000;2023-02-03T05:37:07;100202.07;;;-12.71;32.41
45991;BME280;31721;41.740;-88.000;2023-02-03T05:39:36;100207.09;;;-13.17;31.94
45991;BME280;31721;41.740;-88.000;2023-02-03T05:42:04;100214.66;;;-13.23;32.86
45991;BME280;31721;41.740;-88.000;2023-02-03T05:44:32;100216.67;;;-13.44;32.25
45991;BME280;31721;41.740;-88.000;2023-02-03T05:47:00;100220.08;;;-13.24;32.57
45991;BME280;31721;41.740;-88.000;2023-02-03T05:49:28;100223.68;;;-13.51;32.06
45991;BME280;31721;41.740;-88.000;2023-02-03T05:51:56;100231.72;;;-13.66;31.40
45991;BME280;31721;41.740;-88.000;2023-02-03T05:54:24;100232.96;;;-13.59;31.58
45991;BME280;31721;41.740;-88.000;2023-02-03T05:56:53;100234.59;;;-14.00;31.61
45991;BME280;31721;41.740;-88.000;2023-02-03T05:59:21;100242.92;;;-14.11;31.84
45991;BME280;31721;41.740;-88.000;2023-02-03T06:01:49;100242.38;;;-14.13;31.31
45991;BME280;31721;41.740;-88.000;2023-02-03T06:04:16;100247.98;;;-13.93;32.20
45991;BME280;31721;41.740;-88.000;2023-02-03T06:06:44;100240.13;;;-14.03;32.17
45991;BME280;31721;41.740;-88.000;2023-02-03T06:09:12;100240.29;;;-14.27;32.68
45991;BME280;31721;41.740;-88.000;2023-02-03T06:11:40;100243.70;;;-14.29;32.91
45991;BME280;31721;41.740;-88.000;2023-02-03T06:14:07;100245.81;;;-14.65;32.57
45991;BME280;31721;41.740;-88.000;2023-02-03T06:16:35;100242.85;;;-14.69;32.64
45991;BME280;31721;41.740;-88.000;2023-02-03T06:19:02;100247.55;;;-14.29;33.04
45991;BME280;31721;41.740;-88.000;2023-02-03T06:21:30;100258.12;;;-14.33;32.82
45991;BME280;31721;41.740;-88.000;2023-02-03T06:23:57;100262.59;;;-13.98;32.50
45991;BME280;31721;41.740;-88.000;2023-02-03T06:26:24;100261.74;;;-14.39;32.78
45991;BME280;31721;41.740;-88.000;2023-02-03T06:28:52;100266.34;;;-14.88;33.16
45991;BME280;31721;41.740;-88.000;2023-02-03T06:31:20;100278.85;;;-14.30;32.84
45991;BME280;31721;41.740;-88.000;2023-02-03T06:33:48;100269.62;;;-15.04;33.10
45991;BME280;31721;41.740;-88.000;2023-02-03T06:36:15;100277.34;;;-14.74;32.96
45991;BME280;31721;41.740;-88.000;2023-02-03T06:38:43;100283.38;;;-14.98;33.16
45991;BME280;31721;41.740;-88.000;2023-02-03T06:41:11;100282.32;;;-14.97;33.39
45991;BME280;31721;41.740;-88.000;2023-02-03T06:43:38;100280.52;;;-15.04;33.32
45991;BME280;31721;41.740;-88.000;2023-02-03T06:46:05;100274.88;;;-15.21;33.18
45991;BME280;31721;41.740;-88.000;2023-02-03T06:48:33;100281.80;;;-15.33;33.68
45991;BME280;31721;41.740;-88.000;2023-02-03T06:51:00;100293.35;;;-14.90;33.55
45991;BME280;31721;41.740;-88.000;2023-02-03T06:53:28;100298.27;;;-14.84;33.56
45991;BME280;31721;41.740;-88.000;2023-02-03T06:55:57;100302.60;;;-14.69;33.38
45991;BME280;31721;41.740;-88.000;2023-02-03T06:58:24;100317.05;;;-15.27;33.73
45991;BME280;31721;41.740;-88.000;2023-02-03T07:00:54;100319.74;;;-14.96;33.60
45991;BME280;31721;41.740;-88.000;2023-02-03T07:03:22;100323.55;;;-15.71;34.07
45991;BME280;31721;41.740;-88.000;2023-02-03T07:05:50;100325.02;;;-14.90;33.65
45991;BME280;31721;41.740;-88.000;2023-02-03T07:08:18;100331.52;;;-14.63;33.79
45991;BME280;31721;41.740;-88.000;2023-02-03T07:10:45;100332.77;;;-14.55;33.43
45991;BME280;31721;41.740;-88.000;2023-02-03T07:13:12;100330.17;;;-14.64;33.51
45991;BME280;31721;41.740;-88.000;2023-02-03T07:15:40;100341.82;;;-14.93;33.35
45991;BME280;31721;41.740;-88.000;2023-02-03T07:18:07;100338.30;;;-14.91;33.26
45991;BME280;31721;41.740;-88.000;2023-02-03T07:20:35;100341.84;;;-15.52;33.51
45991;BME280;31721;41.740;-88.000;2023-02-03T07:23:03;100340.40;;;-15.26;33.08
45991;BME280;31721;41.740;-88.000;2023-02-03T07:25:31;100347.83;;;-15.83;33.29
45991;BME280;31721;41.740;-88.000;2023-02-03T07:28:00;100349.65;;;-15.60;34.20
45991;BME280;31721;41.740;-88.000;2023-02-03T07:30:27;100360.14;;;-15.79;34.27
45991;BME280;31721;41.740;-88.000;2023-02-03T07:32:55;100365.03;;;-15.56;33.85
45991;BME280;31721;41.740;-88.000;2023-02-03T07:35:22;100367.76;;;-15.77;34.25
45991;BME280;31721;41.740;-88.000;2023-02-03T07:37:51;100365.99;;;-15.45;34.18
45991;BME280;31721;41.740;-88.000;2023-02-03T07:40:19;100378.43;;;-16.24;34.35
45991;BME280;31721;41.740;-88.000;2023-02-03T07:42:48;100369.67;;;-16.14;34.52
45991;BME280;31721;41.740;-88.000;2023-02-03T07:45:16;100378.15;;;-15.95;34.05
45991;BME280;31721;41.740;-88.000;2023-02-03T07:47:44;100382.12;;;-16.01;34.29
45991;BME280;31721;41.740;-88.000;2023-02-03T07:50:12;100393.94;;;-15.93;33.81
45991;BME280;31721;41.740;-88.000;2023-02-03T07:52:40;100383.04;;;-16.36;34.71
45991;BME280;31721;41.740;-88.000;2023-02-03T07:55:08;100388.28;;;-16.25;34.39
45991;BME280;31721;41.740;-88.000;2023-02-03T07:57:35;100395.44;;;-16.09;34.59
45991;BME280;31721;41.740;-88.000;2023-02-03T08:00:04;100404.89;;;-15.58;34.09
45991;BME280;31721;41.740;-88.000;2023-02-03T08:02:32;100400.39;;;-15.71;34.45
45991;BME280;31721;41.740;-88.000;2023-02-03T08:05:00;100406.82;;;-15.76;34.31
45991;BME280;31721;41.740;-88.000;2023-02-03T08:07:27;100409.28;;;-15.96;33.99
45991;BME280;31721;41.740;-88.000;2023-02-03T08:09:54;100413.18;;;-16.23;34.08
45991;BME280;31721;41.740;-88.000;2023-02-03T08:12:22;100412.67;;;-15.81;34.18
45991;BME280;31721;41.740;-88.000;2023-02-03T08:14:49;100409.31;;;-15.94;33.89
45991;BME280;31721;41.740;-88.000;2023-02-03T08:17:16;100416.12;;;-16.34;34.12
45991;BME280;31721;41.740;-88.000;2023-02-03T08:19:44;100418.46;;;-16.80;34.79
45991;BME280;31721;41.740;-88.000;2023-02-03T08:22:11;100422.69;;;-16.24;34.38
45991;BME280;31721;41.740;-88.000;2023-02-03T08:24:39;100429.79;;;-16.52;34.51
45991;BME280;31721;41.740;-88.000;2023-02-03T08:27:06;100430.05;;;-16.30;34.55
45991;BME280;31721;41.740;-88.000;2023-02-03T08:29:34;100431.32;;;-16.10;34.25
45991;BME280;31721;41.740;-88.000;2023-02-03T08:32:01;100429.66;;;-16.37;34.44
45991;BME280;31721;41.740;-88.000;2023-02-03T08:34:30;100431.74;;;-16.36;34.64
45991;BME280;31721;41.740;-88.000;2023-02-03T08:36:58;100439.13;;;-16.65;34.56
45991;BME280;31721;41.740;-88.000;2023-02-03T08:39:26;100438.07;;;-16.62;34.48
45991;BME280;31721;41.740;-88.000;2023-02-03T08:41:54;100442.73;;;-16.44;34.66
45991;BME280;31721;41.740;-88.000;2023-02-03T08:44:22;100444.36;;;-16.32;34.57
45991;BME280;31721;41.740;-88.000;2023-02-03T08:46:50;100447.08;;;-16.78;34.82
45991;BME280;31721;41.740;-88.000;2023-02-03T08:49:18;100448.04;;;-16.46;34.47
45991;BME280;31721;41.740;-88.000;2023-02-03T08:51:47;100448.82;;;-16.07;34.68
45991;BME280;31721;41.740;-88.000;2023-02-03T08:54:15;100451.20;;;-15.95;34.45
45991;BME280;31721;41.740;-88.000;2023-02-03T08:56:42;100455.13;;;-15.97;34.53
45991;BME280;31721;41.740;-88.000;2023-02-03T08:59:11;100458.75;;;-16.19;34.03
45991;BME280;31721;41.740;-88.000;2023-02-03T09:01:39;100461.79;;;-16.09;34.35
45991;BME280;31721;41.740;-88.000;2023-02-03T09:04:07;100463.96;;;-16.71;34.49
45991;BME280;31721;41.740;-88.000;2023-02-03T09:06:35;100470.88;;;-16.63;34.44
45991;BME280;31721;41.740;-88.000;2023-02-03T09:09:03;100470.12;;;-16.94;34.66
45991;BME280;31721;41.740;-88.000;2023-02-03T09:11:31;100474.98;;;-17.01;34.75
45991;BME280;31721;41.740;-88.000;2023-02-03T09:13:58;100473.60;;;-16.49;34.37
45991;BME280;31721;41.740;-88.000;2023-02-03T09:16:26;100475.54;;;-16.81;34.50
45991;BME280;31721;41.740;-88.000;2023-02-03T09:18:53;100480.41;;;-17.51;35.39
45991;BME280;31721;41.740;-88.000;2023-02-03T09:21:21;100480.38;;;-17.47;35.11
45991;BME280;31721;41.740;-88.000;2023-02-03T09:23:48;100479.46;;;-17.40;35.29
45991;BME280;31721;41.740;-88.000;2023-02-03T09:26:17;100478.66;;;-18.00;36.08
45991;BME280;31721;41.740;-88.000;2023-02-03T09:28:45;100482.44;;;-17.91;36.02
45991;BME280;31721;41.740;-88.000;2023-02-03T09:31:14;100489.72;;;-17.51;35.72
45991;BME280;31721;41.740;-88.000;2023-02-03T09:33:42;100483.87;;;-17.41;35.57
45991;BME280;31721;41.740;-88.000;2023-02-03T09:36:11;100496.79;;;-17.50;35.49
45991;BME280;31721;41.740;-88.000;2023-02-03T09:38:39;100502.10;;;-17.48;35.44
45991;BME280;31721;41.740;-88.000;2023-02-03T09:41:31;100500.57;;;-17.34;35.81
45991;BME280;31721;41.740;-88.000;2023-02-03T09:44:11;100505.05;;;-17.77;35.85
45991;BME280;31721;41.740;-88.000;2023-02-03T09:46:43;100505.78;;;-17.39;35.38
45991;BME280;31721;41.740;-88.000;2023-02-03T09:49:15;100504.75;;;-18.23;36.06
45991;BME280;31721;41.740;-88.000;2023-02-03T09:51:48;100512.27;;;-17.98;36.59
45991;BME280;31721;41.740;-88.000;2023-02-03T09:54:20;100513.17;;;-17.27;35.69
45991;BME280;31721;41.740;-88.000;2023-02-03T09:56:52;100517.65;;;-17.28;35.49
45991;BME280;31721;41.740;-88.000;2023-02-03T09:59:21;100523.92;;;-17.27;35.46
45991;BME280;31721;41.740;-88.000;2023-02-03T10:01:54;100525.63;;;-17.73;35.42
45991;BME280;31721;41.740;-88.000;2023-02-03T10:04:30;100526.61;;;-17.67;35.93
45991;BME280;31721;41.740;-88.000;2023-02-03T10:07:07;100524.80;;;-17.70;35.86
45991;BME280;31721;41.740;-88.000;2023-02-03T10:09:50;100527.49;;;-18.00;36.03
45991;BME280;31721;41.740;-88.000;2023-02-03T10:12:50;100535.11;;;-18.21;36.47
45991;BME280;31721;41.740;-88.000;2023-02-03T10:20:15;100527.52;;;-18.17;36.30
45991;BME280;31721;41.740;-88.000;2023-02-03T10:22:47;100526.63;;;-18.33;36.57
45991;BME280;31721;41.740;-88.000;2023-02-03T10:25:20;100532.91;;;-18.00;36.28
45991;BME280;31721;41.740;-88.000;2023-02-03T10:27:50;100535.74;;;-18.26;36.29
45991;BME280;31721;41.740;-88.000;2023-02-03T10:30:22;100541.91;;;-18.40;36.65
45991;BME280;31721;41.740;-88.000;2023-02-03T10:32:53;100550.82;;;-18.25;36.69
45991;BME280;31721;41.740;-88.000;2023-02-03T10:35:31;100548.12;;;-18.13;36.63
45991;BME280;31721;41.740;-88.000;2023-02-03T10:38:02;100551.56;;;-18.32;36.54
45991;BME280;31721;41.740;-88.000;2023-02-03T10:40:32;100558.58;;;-18.02;36.28
45991;BME280;31721;41.740;-88.000;2023-02-03T10:43:00;100555.70;;;-18.76;36.91
45991;BME280;31721;41.740;-88.000;2023-02-03T10:45:29;100556.48;;;-18.76;37.06
45991;BME280;31721;41.740;-88.000;2023-02-03T10:47:59;100555.56;;;-18.49;36.61
45991;BME280;31721;41.740;-88.000;2023-02-03T10:50:28;100557.34;;;-18.49;36.47
45991;BME280;31721;41.740;-88.000;2023-02-03T10:53:19;100560.21;;;-18.24;36.19
45991;BME280;31721;41.740;-88.000;2023-02-03T10:55:50;100557.03;;;-18.78;36.68
45991;BME280;31721;41.740;-88.000;2023-02-03T10:58:24;100565.24;;;-18.99;37.34
45991;BME280;31721;41.740;-88.000;2023-02-03T11:00:55;100566.27;;;-19.10;37.13
45991;BME280;31721;41.740;-88.000;2023-02-03T11:03:25;100577.48;;;-18.93;37.00
45991;BME280;31721;41.740;-88.000;2023-02-03T11:06:10;100582.56;;;-18.61;36.89
45991;BME280;31721;41.740;-88.000;2023-02-03T11:08:42;100586.47;;;-18.72;36.74
45991;BME280;31721;41.740;-88.000;2023-02-03T11:11:14;100591.62;;;-18.55;36.61
45991;BME280;31721;41.740;-88.000;2023-02-03T11:13:46;100596.42;;;-19.25;37.43
45991;BME280;31721;41.740;-88.000;2023-02-03T11:16:19;100594.74;;;-18.65;36.91
45991;BME280;31721;41.740;-88.000;2023-02-03T11:18:54;100604.15;;;-18.57;36.75
45991;BME280;31721;41.740;-88.000;2023-02-03T11:21:26;100603.38;;;-18.81;37.06
45991;BME280;31721;41.740;-88.000;2023-02-03T11:24:00;100605.60;;;-18.45;36.74
45991;BME280;31721;41.740;-88.000;2023-02-03T11:26:32;100602.49;;;-18.09;36.90
45991;BME280;31721;41.740;-88.000;2023-02-03T11:29:02;100600.84;;;-18.02;36.55
45991;BME280;31721;41.740;-88.000;2023-02-03T11:31:33;100601.54;;;-17.62;36.70
45991;BME280;31721;41.740;-88.000;2023-02-03T11:34:03;100604.18;;;-18.79;36.71
45991;BME280;31721;41.740;-88.000;2023-02-03T11:36:33;100610.97;;;-18.78;37.06
45991;BME280;31721;41.740;-88.000;2023-02-03T11:39:16;100613.09;;;-18.49;36.64
45991;BME280;31721;41.740;-88.000;2023-02-03T11:41:46;100617.29;;;-18.56;36.96
45991;BME280;31721;41.740;-88.000;2023-02-03T11:44:19;100627.17;;;-18.62;36.98
45991;BME280;31721;41.740;-88.000;2023-02-03T11:46:49;100635.30;;;-19.08;36.82
45991;BME280;31721;41.740;-88.000;2023-02-03T11:49:37;100635.31;;;-18.66;36.82
45991;BME280;31721;41.740;-88.000;2023-02-03T11:52:24;100638.11;;;-18.53;36.94
45991;BME280;31721;41.740;-88.000;2023-02-03T11:55:05;100639.33;;;-18.72;37.00
45991;BME280;31721;41.740;-88.000;2023-02-03T11:57:41;100647.89;;;-18.68;36.79
45991;BME280;31721;41.740;-88.000;2023-02-03T12:00:21;100649.48;;;-18.61;36.59
45991;BME280;31721;41.740;-88.000;2023-02-03T12:03:12;100658.61;;;-18.63;36.56
45991;BME280;31721;41.740;-88.000;2023-02-03T12:05:57;100671.42;;;-19.07;36.74
45991;BME280;31721;41.740;-88.000;2023-02-03T12:08:46;100679.33;;;-18.72;36.58
45991;BME280;31721;41.740;-88.000;2023-02-03T12:11:26;100682.61;;;-18.56;36.57
45991;BME280;31721;41.740;-88.000;2023-02-03T12:14:11;100683.22;;;-18.35;36.15
45991;BME280;31721;41.740;-88.000;2023-02-03T12:16:56;100688.46;;;-18.82;36.29
45991;BME280;31721;41.740;-88.000;2023-02-03T12:19:33;100688.90;;;-18.26;36.24
45991;BME280;31721;41.740;-88.000;2023-02-03T12:22:12;100689.83;;;-18.64;35.90
45991;BME280;31721;41.740;-88.000;2023-02-03T12:24:50;100689.93;;;-18.22;36.31
45991;BME280;31721;41.740;-88.000;2023-02-03T12:27:33;100692.41;;;-18.39;36.35
45991;BME280;31721;41.740;-88.000;2023-02-03T12:30:09;100696.05;;;-17.88;36.41
45991;BME280;31721;41.740;-88.000;2023-02-03T12:32:44;100702.41;;;-18.62;36.41
45991;BME280;31721;41.740;-88.000;2023-02-03T12:35:19;100702.74;;;-18.93;36.54
45991;BME280;31721;41.740;-88.000;2023-02-03T12:37:51;100709.57;;;-18.98;36.83
45991;BME280;31721;41.740;-88.000;2023-02-03T12:40:27;100706.23;;;-18.29;36.46
45991;BME280;31721;41.740;-88.000;2023-02-03T12:43:17;100711.79;;;-18.82;36.30
45991;BME280;31721;41.740;-88.000;2023-02-03T12:45:52;100719.42;;;-18.40;36.34
45991;BME280;31721;41.740;-88.000;2023-02-03T12:48:23;100720.70;;;-18.35;36.28
45991;BME280;31721;41.740;-88.000;2023-02-03T12:50:57;100719.60;;;-18.69;36.29
45991;BME280;31721;41.740;-88.000;2023-02-03T12:53:32;100721.12;;;-18.61;36.44